createdAt,value
2022-12-24T00:00:10.859Z,100857.00
2022-12-24T00:02:37.750Z,100822.91
2022-12-24T00:05:04.923Z,100904.63
2022-12-24T00:07:31.985Z,100870.78
2022-12-24T00:09:58.628Z,100822.88
2022-12-24T00:12:25.798Z,100857.84
2022-12-24T00:14:52.406Z,100862.38
2022-12-24T00:17:19.279Z,100813.66
2022-12-24T00:19:45.871Z,100868.53
2022-12-24T00:22:12.537Z,100884.44
2022-12-24T00:24:39.182Z,100896.59
2022-12-24T00:27:06.031Z,100882.72
2022-12-24T00:29:33.800Z,100879.56
2022-12-24T00:32:00.936Z,100852.28
2022-12-24T00:34:27.788Z,100841.84
2022-12-24T00:36:54.685Z,100872.56
2022-12-24T00:39:21.358Z,100892.34
2022-12-24T00:41:47.970Z,100847.09
2022-12-24T00:44:14.617Z,100844.41
2022-12-24T00:46:42.119Z,100867.50
2022-12-24T00:49:11.565Z,100869.41
2022-12-24T00:51:38.679Z,100877.38
2022-12-24T00:54:06.163Z,100874.75
2022-12-24T00:56:33.385Z,100860.09
2022-12-24T00:59:00.564Z,100854.09
2022-12-24T01:01:28.154Z,100853.16
2022-12-24T01:04:18.456Z,100857.63
2022-12-24T01:06:45.142Z,100862.84
2022-12-24T01:09:11.853Z,100858.75
2022-12-24T01:11:38.853Z,100854.41
2022-12-24T01:14:05.658Z,100863.84
2022-12-24T01:16:32.367Z,100852.81
2022-12-24T01:18:59.134Z,100845.41
2022-12-24T01:21:25.933Z,100836.72
2022-12-24T01:23:52.701Z,100833.75
2022-12-24T01:26:19.475Z,100836.75
2022-12-24T01:28:46.186Z,100841.56
2022-12-24T01:31:14.720Z,100836.16
2022-12-24T01:33:42.182Z,100807.34
2022-12-24T01:36:09.212Z,100849.59
2022-12-24T01:38:36.612Z,100832.91
2022-12-24T01:41:21.955Z,100836.41
2022-12-24T01:43:48.736Z,100848.50
2022-12-24T01:46:29.760Z,100849.47
2022-12-24T01:49:00.116Z,100851.97
2022-12-24T01:51:29.706Z,100868.34
2022-12-24T01:54:37.484Z,100852.00
2022-12-24T01:57:22.855Z,100831.91
2022-12-24T01:59:55.587Z,100848.53
2022-12-24T02:02:22.653Z,100860.53
2022-12-24T02:05:04.714Z,100849.38
2022-12-24T02:07:31.647Z,100782.19
2022-12-24T02:10:01.349Z,100840.53
2022-12-24T02:12:32.572Z,100852.56
2022-12-24T02:15:00.039Z,100853.72
2022-12-24T02:17:30.681Z,100868.34
2022-12-24T02:20:14.568Z,100855.25
2022-12-24T02:23:13.996Z,100864.38
2022-12-24T02:26:07.232Z,100867.13
2022-12-24T02:28:42.836Z,100858.63
2022-12-24T02:31:21.271Z,100821.16
2022-12-24T02:33:55.052Z,100828.50
2022-12-24T02:36:36.746Z,100869.66
2022-12-24T02:39:09.315Z,100855.91
2022-12-24T02:41:59.205Z,100829.88
2022-12-24T02:44:28.852Z,100819.75
2022-12-24T02:46:58.338Z,100846.47
2022-12-24T02:49:25.452Z,100842.97
2022-12-24T02:51:52.082Z,100849.75
2022-12-24T02:54:19.083Z,100856.69
2022-12-24T02:57:03.670Z,100851.34
2022-12-24T02:59:45.184Z,100868.75
2022-12-24T03:02:12.040Z,100879.56
2022-12-24T03:04:41.804Z,100864.72
2022-12-24T03:07:12.160Z,100867.03
2022-12-24T03:10:03.682Z,100861.34
2022-12-24T03:12:39.723Z,100862.88
2022-12-24T03:15:09.233Z,100856.63
2022-12-24T03:17:38.301Z,100852.94
2022-12-24T03:20:08.626Z,100855.63
2022-12-24T03:22:36.457Z,100859.84
2022-12-24T03:25:04.224Z,100866.16
2022-12-24T03:27:32.796Z,100856.25
2022-12-24T03:29:59.814Z,100881.91
2022-12-24T03:32:31.894Z,100873.50
2022-12-24T03:34:58.798Z,100859.56
2022-12-24T03:37:26.756Z,100894.81
2022-12-24T03:39:53.213Z,100861.22
2022-12-24T03:42:20.120Z,100872.44
2022-12-24T03:44:46.779Z,100885.41
2022-12-24T03:47:13.369Z,100885.28
2022-12-24T03:49:39.954Z,100868.72
2022-12-24T03:52:06.608Z,100886.91
2022-12-24T03:54:33.210Z,100890.84
2022-12-24T03:56:59.845Z,100887.16
2022-12-24T03:59:27.899Z,100878.56
2022-12-24T04:01:54.792Z,100878.59
2022-12-24T04:04:21.616Z,100841.00
2022-12-24T04:06:48.432Z,100852.38
2022-12-24T04:09:15.703Z,100897.94
2022-12-24T04:11:42.403Z,100885.91
2022-12-24T04:14:09.007Z,100878.50
2022-12-24T04:16:35.739Z,100890.63
2022-12-24T04:19:02.452Z,100868.22
2022-12-24T04:21:29.077Z,100888.28
2022-12-24T04:23:55.698Z,100889.91
2022-12-24T04:26:22.372Z,100864.97
2022-12-24T04:28:49.020Z,100858.13
2022-12-24T04:31:17.716Z,100875.56
2022-12-24T04:33:45.495Z,100855.88
2022-12-24T04:36:14.722Z,100883.44
2022-12-24T04:38:41.288Z,100853.31
2022-12-24T04:41:20.771Z,100876.06
2022-12-24T04:43:51.951Z,100849.88
2022-12-24T04:46:21.919Z,100882.28
2022-12-24T04:48:50.786Z,100873.84
2022-12-24T04:51:18.704Z,100883.34
2022-12-24T04:53:45.273Z,100885.34
2022-12-24T04:56:21.613Z,100909.47
2022-12-24T04:58:49.190Z,100890.91
2022-12-24T05:01:24.938Z,100889.09
2022-12-24T05:03:52.495Z,100900.34
2022-12-24T05:06:22.731Z,100865.75
2022-12-24T05:08:50.036Z,100887.50
2022-12-24T05:11:17.366Z,100882.50
2022-12-24T05:13:47.575Z,100908.34
2022-12-24T05:16:15.883Z,100889.88
2022-12-24T05:18:42.723Z,100895.19
2022-12-24T05:21:18.922Z,100888.91
2022-12-24T05:24:06.028Z,100885.81
2022-12-24T05:26:38.484Z,100891.91
2022-12-24T05:29:06.438Z,100872.03
2022-12-24T05:31:33.718Z,100890.47
2022-12-24T05:34:01.099Z,100860.56
2022-12-24T05:36:27.840Z,100854.28
2022-12-24T05:38:54.557Z,100893.25
2022-12-24T05:41:21.275Z,100893.72
2022-12-24T05:43:47.928Z,100873.72
2022-12-24T05:46:19.133Z,100830.19
2022-12-24T05:48:47.136Z,100870.66
2022-12-24T05:51:15.591Z,100899.81
2022-12-24T05:53:42.262Z,100910.91
2022-12-24T05:56:12.688Z,100905.56
2022-12-24T05:58:40.557Z,100892.91
2022-12-24T06:01:08.328Z,100905.56
2022-12-24T06:03:35.735Z,100920.88
2022-12-24T06:06:07.623Z,100858.94
2022-12-24T06:08:35.857Z,100910.41
2022-12-24T06:11:05.453Z,100920.94
2022-12-24T06:13:32.935Z,100893.13
2022-12-24T06:16:01.637Z,100898.28
2022-12-24T06:18:33.570Z,100927.16
2022-12-24T06:21:00.502Z,100919.28
2022-12-24T06:23:29.603Z,100878.47
2022-12-24T06:25:57.168Z,100906.56
2022-12-24T06:28:24.204Z,100917.06
2022-12-24T06:30:51.056Z,100927.00
2022-12-24T06:33:18.944Z,100923.47
2022-12-24T06:35:46.995Z,100930.59
2022-12-24T06:38:14.186Z,100936.13
2022-12-24T06:40:42.142Z,100937.34
2022-12-24T06:43:08.817Z,100934.66
2022-12-24T06:45:35.591Z,100907.22
2022-12-24T06:48:02.408Z,100938.34
2022-12-24T06:50:29.185Z,100935.38
2022-12-24T06:52:55.782Z,100937.38
2022-12-24T06:55:22.420Z,100971.38
2022-12-24T06:57:49.030Z,100906.56
2022-12-24T07:00:15.942Z,100924.53
2022-12-24T07:02:43.842Z,100959.84
2022-12-24T07:05:11.376Z,100956.44
2022-12-24T07:07:39.516Z,100952.88
2022-12-24T07:10:07.320Z,100974.34
2022-12-24T07:12:33.980Z,100952.53
2022-12-24T07:15:00.638Z,100961.44
2022-12-24T07:17:27.776Z,100935.41
2022-12-24T07:19:54.771Z,100946.47
2022-12-24T07:22:21.540Z,100877.13
2022-12-24T07:24:48.260Z,100960.66
2022-12-24T07:27:14.861Z,100934.22
2022-12-24T07:29:41.839Z,100941.47
2022-12-24T07:32:08.876Z,100941.72
2022-12-24T07:34:35.921Z,100933.31
2022-12-24T07:37:02.532Z,100922.00
2022-12-24T07:39:29.183Z,100930.28
2022-12-24T07:41:55.756Z,100933.69
2022-12-24T07:44:22.392Z,100906.59
2022-12-24T07:46:49.094Z,100910.66
2022-12-24T07:49:15.749Z,100931.94
2022-12-24T07:51:42.525Z,100943.97
2022-12-24T07:54:09.234Z,100942.31
2022-12-24T07:56:35.802Z,100935.25
2022-12-24T07:59:02.428Z,100939.03
2022-12-24T08:01:29.172Z,100914.47
2022-12-24T08:03:56.031Z,100951.28
2022-12-24T08:06:23.343Z,100924.63
2022-12-24T08:08:50.318Z,100939.56
2022-12-24T08:11:17.071Z,100922.59
2022-12-24T08:13:43.744Z,100925.69
2022-12-24T08:16:10.476Z,100939.97
2022-12-24T08:18:37.143Z,100945.75
2022-12-24T08:21:08.148Z,100928.66
2022-12-24T08:23:36.023Z,100929.38
2022-12-24T08:26:03.092Z,100918.44
2022-12-24T08:28:29.866Z,100892.66
2022-12-24T08:30:56.498Z,100910.75
2022-12-24T08:33:23.206Z,100915.91
2022-12-24T08:35:52.393Z,100934.47
2022-12-24T08:38:20.039Z,100920.06
2022-12-24T08:40:48.962Z,100922.97
2022-12-24T08:43:19.555Z,100906.69
2022-12-24T08:45:49.290Z,100902.47
2022-12-24T08:48:16.128Z,100905.09
2022-12-24T08:50:43.352Z,100908.78
2022-12-24T08:53:10.629Z,100901.16
2022-12-24T08:55:37.628Z,100904.44
2022-12-24T08:58:04.499Z,100899.38
2022-12-24T09:00:31.155Z,100904.34
2022-12-24T09:02:58.170Z,100895.34
2022-12-24T09:05:26.121Z,100887.53
2022-12-24T09:07:53.343Z,100867.78
2022-12-24T09:10:20.297Z,100905.97
2022-12-24T09:12:47.839Z,100905.38
2022-12-24T09:15:14.555Z,100902.09
2022-12-24T09:17:41.543Z,100888.34
2022-12-24T09:20:09.124Z,100892.59
2022-12-24T09:22:37.742Z,100884.75
2022-12-24T09:25:06.360Z,100884.78
2022-12-24T09:27:33.694Z,100864.06
2022-12-24T09:30:00.565Z,100884.81
2022-12-24T09:32:27.439Z,100883.94
2022-12-24T09:34:54.357Z,100882.59
2022-12-24T09:37:21.169Z,100884.69
2022-12-24T09:39:47.817Z,100869.06
2022-12-24T09:42:38.859Z,100870.97
2022-12-24T09:45:14.989Z,100869.34
2022-12-24T09:47:43.629Z,100866.75
2022-12-24T09:50:22.757Z,100855.56
2022-12-24T09:52:52.112Z,100859.94
2022-12-24T09:55:37.407Z,100859.03
2022-12-24T09:58:06.784Z,100860.72
2022-12-24T10:00:37.720Z,100860.78
2022-12-24T10:03:31.110Z,100866.97
2022-12-24T10:06:29.020Z,100868.69
2022-12-24T10:09:18.074Z,100860.94
2022-12-24T10:12:11.115Z,100854.97
2022-12-24T10:15:01.248Z,100855.78
2022-12-24T10:17:35.954Z,100857.59
2022-12-24T10:20:48.137Z,100844.63
2022-12-24T10:23:22.484Z,100840.31
2022-12-24T10:26:14.775Z,100843.00
2022-12-24T10:28:41.326Z,100842.84
2022-12-24T10:31:08.989Z,100813.13
2022-12-24T10:33:44.139Z,100844.56
2022-12-24T10:36:18.739Z,100832.47
2022-12-24T10:38:46.324Z,100841.97
2022-12-24T10:41:14.646Z,100840.00
2022-12-24T10:43:43.370Z,100838.44
2022-12-24T10:46:30.392Z,100837.56
2022-12-24T10:49:04.636Z,100854.88
2022-12-24T10:51:55.033Z,100811.59
2022-12-24T10:54:27.361Z,100829.13
2022-12-24T10:57:02.479Z,100831.78
2022-12-24T10:59:35.747Z,100823.06
2022-12-24T11:02:02.819Z,100823.94
2022-12-24T11:04:32.541Z,100787.47
2022-12-24T11:07:01.367Z,100811.88
2022-12-24T11:09:34.461Z,100819.75
2022-12-24T11:12:08.948Z,100782.34
2022-12-24T11:14:38.753Z,100801.53
2022-12-24T11:17:05.953Z,100805.91
2022-12-24T11:19:39.469Z,100811.97
2022-12-24T11:22:17.805Z,100808.47
2022-12-24T11:24:50.061Z,100799.72
2022-12-24T11:27:39.426Z,100748.31
2022-12-24T11:30:20.757Z,100795.41
2022-12-24T11:33:05.655Z,100802.38
2022-12-24T11:35:39.384Z,100779.78
2022-12-24T11:38:08.542Z,100807.63
2022-12-24T11:40:42.430Z,100770.22
2022-12-24T11:43:16.998Z,100791.91
2022-12-24T11:45:55.607Z,100795.31
2022-12-24T11:48:31.170Z,100805.75
2022-12-24T11:51:04.050Z,100802.31
2022-12-24T11:53:56.605Z,100766.59
2022-12-24T11:56:35.409Z,100802.22
2022-12-24T11:59:28.066Z,100783.19
2022-12-24T12:02:02.774Z,100782.31
2022-12-24T12:04:35.319Z,100766.63
2022-12-24T12:07:15.349Z,100762.22
2022-12-24T12:10:07.998Z,100770.16
2022-12-24T12:12:42.111Z,100791.94
2022-12-24T12:15:20.645Z,100807.56
2022-12-24T12:17:52.982Z,100807.63
2022-12-24T12:20:22.488Z,100787.56
2022-12-24T12:23:00.382Z,100776.22
2022-12-24T12:25:34.166Z,100785.00
2022-12-24T12:28:03.687Z,100780.66
2022-12-24T12:30:32.919Z,100734.53
2022-12-24T12:33:02.694Z,100789.34
2022-12-24T12:35:36.671Z,100782.38
2022-12-24T12:38:11.710Z,100787.59
2022-12-24T12:41:09.434Z,100799.78
2022-12-24T12:44:14.161Z,100800.66
2022-12-24T12:46:51.840Z,100805.88
2022-12-24T12:49:33.674Z,100788.47
2022-12-24T12:52:32.039Z,100791.91
2022-12-24T12:55:22.332Z,100805.81
2022-12-24T12:57:54.533Z,100778.84
2022-12-24T13:00:21.504Z,100757.94
2022-12-24T13:03:09.900Z,100787.56
2022-12-24T13:05:59.629Z,100784.13
2022-12-24T13:08:55.403Z,100798.91
2022-12-24T13:11:52.941Z,100818.06
2022-12-24T13:14:46.741Z,100802.41
2022-12-24T13:17:26.535Z,100741.50
2022-12-24T13:19:56.126Z,100803.28
2022-12-24T13:22:23.373Z,100770.22
2022-12-24T13:24:53.267Z,100777.16
2022-12-24T13:27:27.665Z,100792.81
2022-12-24T13:29:54.219Z,100794.59
2022-12-24T13:32:20.754Z,100772.81
2022-12-24T13:35:01.049Z,100766.72
2022-12-24T13:37:27.650Z,100767.59
2022-12-24T13:40:06.121Z,100778.03
2022-12-24T13:42:50.992Z,100761.50
2022-12-24T13:45:30.073Z,100761.50
2022-12-24T13:48:18.540Z,100774.53
2022-12-24T13:50:49.088Z,100771.94
2022-12-24T13:53:44.701Z,100782.34
2022-12-24T13:56:14.387Z,100780.59
2022-12-24T13:58:45.285Z,100702.34
2022-12-24T14:01:17.034Z,100767.56
2022-12-24T14:03:59.900Z,100763.19
2022-12-24T14:06:30.592Z,100766.66
2022-12-24T14:09:18.981Z,100767.53
2022-12-24T14:12:03.924Z,100768.38
2022-12-24T14:14:36.801Z,100759.72
2022-12-24T14:17:14.031Z,100754.50
2022-12-24T14:19:47.806Z,100754.50
2022-12-24T14:22:29.677Z,100786.72
2022-12-24T14:25:03.337Z,100783.22
2022-12-24T14:27:38.128Z,100788.50
2022-12-24T14:30:19.763Z,100777.16
2022-12-24T14:32:47.413Z,100783.25
2022-12-24T14:35:13.963Z,100803.28
2022-12-24T14:37:42.855Z,100780.66
2022-12-24T14:40:19.114Z,100775.44
2022-12-24T14:43:20.526Z,100801.53
2022-12-24T14:45:51.074Z,100798.06
2022-12-24T14:48:28.142Z,100772.81
2022-12-24T14:51:10.104Z,100774.56
2022-12-24T14:53:57.757Z,100788.47
2022-12-24T14:56:25.604Z,100796.28
2022-12-24T14:58:52.655Z,100785.84
2022-12-24T15:01:29.138Z,100804.13
2022-12-24T15:04:15.770Z,100790.22
2022-12-24T15:06:56.150Z,100797.16
2022-12-24T15:09:26.353Z,100794.53
2022-12-24T15:11:57.238Z,100806.72
2022-12-24T15:14:26.094Z,100805.88
2022-12-24T15:16:59.775Z,100804.97
2022-12-24T15:19:36.072Z,100784.94
2022-12-24T15:22:08.130Z,100825.00
2022-12-24T15:24:43.564Z,100812.81
2022-12-24T15:27:33.498Z,100804.09
2022-12-24T15:30:12.298Z,100763.16
2022-12-24T15:32:38.835Z,100821.44
2022-12-24T15:35:05.858Z,100813.63
2022-12-24T15:37:39.821Z,100831.88
2022-12-24T15:40:24.506Z,100830.09
2022-12-24T15:42:52.232Z,100828.34
2022-12-24T15:45:29.176Z,100832.72
2022-12-24T15:48:09.068Z,100827.47
2022-12-24T15:50:38.414Z,100788.28
2022-12-24T15:53:19.700Z,100823.16
2022-12-24T15:56:01.205Z,100825.78
2022-12-24T15:58:30.410Z,100844.88
2022-12-24T16:01:09.454Z,100831.84
2022-12-24T16:03:39.360Z,100825.69
2022-12-24T16:06:08.002Z,100826.56
2022-12-24T16:08:38.964Z,100812.63
2022-12-24T16:11:05.518Z,100840.50
2022-12-24T16:13:35.844Z,100830.03
2022-12-24T16:16:05.984Z,100816.91
2022-12-24T16:18:37.068Z,100812.50
2022-12-24T16:21:05.595Z,100836.88
2022-12-24T16:23:38.725Z,100842.97
2022-12-24T16:26:05.545Z,100809.81
2022-12-24T16:28:32.898Z,100824.53
2022-12-24T16:30:59.847Z,100856.00
2022-12-24T16:33:26.779Z,100848.94
2022-12-24T16:35:53.613Z,100855.91
2022-12-24T16:38:20.295Z,100844.78
2022-12-24T16:40:46.933Z,100859.41
2022-12-24T16:43:32.438Z,100787.94
2022-12-24T16:46:02.489Z,100804.44
2022-12-24T16:48:30.110Z,100853.19
2022-12-24T16:50:57.428Z,100836.56
2022-12-24T16:53:24.286Z,100832.19
2022-12-24T16:55:52.431Z,100861.78
2022-12-24T16:58:19.642Z,100867.91
2022-12-24T17:00:46.777Z,100877.53
2022-12-24T17:03:14.294Z,100847.13
2022-12-24T17:05:42.452Z,100883.81
2022-12-24T17:08:09.341Z,100855.22
2022-12-24T17:10:36.077Z,100877.00
2022-12-24T17:13:03.447Z,100866.66
2022-12-24T17:15:30.300Z,100865.69
2022-12-24T17:17:57.015Z,100857.06
2022-12-24T17:20:24.528Z,100859.72
2022-12-24T17:22:51.689Z,100860.63
2022-12-24T17:25:18.505Z,100846.69
2022-12-24T17:27:45.190Z,100862.34
2022-12-24T17:30:12.248Z,100867.59
2022-12-24T17:32:39.706Z,100871.09
2022-12-24T17:35:07.481Z,100867.63
2022-12-24T17:37:34.091Z,100883.28
2022-12-24T17:40:00.843Z,100861.56
2022-12-24T17:42:27.582Z,100832.81
2022-12-24T17:44:54.270Z,100858.94
2022-12-24T17:47:21.041Z,100867.66
2022-12-24T17:49:47.734Z,100881.59
2022-12-24T17:52:14.368Z,100853.72
2022-12-24T17:54:41.378Z,100884.19
2022-12-24T17:57:08.136Z,100864.19
2022-12-24T17:59:34.805Z,100845.84
2022-12-24T18:02:01.543Z,100885.00
2022-12-24T18:04:28.393Z,100891.94
2022-12-24T18:07:01.754Z,100889.34
2022-12-24T18:09:29.545Z,100886.66
2022-12-24T18:11:56.188Z,100876.25
2022-12-24T18:14:22.858Z,100879.72
2022-12-24T18:16:49.906Z,100890.19
2022-12-24T18:19:16.723Z,100893.66
2022-12-24T18:21:44.746Z,100904.13
2022-12-24T18:24:13.117Z,100893.69
2022-12-24T18:26:39.720Z,100888.44
2022-12-24T18:29:06.470Z,100896.31
2022-12-24T18:31:34.077Z,100898.06
2022-12-24T18:34:02.939Z,100886.78
2022-12-24T18:36:29.705Z,100880.69
2022-12-24T18:38:56.506Z,100895.44
2022-12-24T18:41:25.708Z,100891.09
2022-12-24T18:43:55.658Z,100899.84
2022-12-24T18:46:25.471Z,100877.22
2022-12-24T18:48:53.166Z,100913.78
2022-12-24T18:51:22.402Z,100892.88
2022-12-24T18:53:49.629Z,100911.16
2022-12-24T18:56:19.072Z,100916.38
2022-12-24T18:58:46.080Z,100904.16
2022-12-24T19:01:13.865Z,100924.19
2022-12-24T19:03:40.928Z,100917.22
2022-12-24T19:06:07.874Z,100925.06
2022-12-24T19:11:22.452Z,100846.69
2022-12-24T19:13:50.565Z,100918.97
2022-12-24T19:16:17.942Z,100938.13
2022-12-24T19:18:44.737Z,100945.97
2022-12-24T19:21:15.302Z,100919.84
2022-12-24T19:23:42.189Z,100945.16
2022-12-24T19:26:11.097Z,100940.78
2022-12-24T19:28:38.281Z,100922.47
2022-12-24T19:31:07.157Z,100952.06
2022-12-24T19:33:42.410Z,100915.41
2022-12-24T19:36:15.998Z,100955.53
2022-12-24T19:38:43.168Z,100958.97
2022-12-24T19:41:12.775Z,100943.28
2022-12-24T19:43:41.744Z,100943.28
2022-12-24T19:46:10.202Z,100984.25
2022-12-24T19:48:37.387Z,100978.97
2022-12-24T19:51:07.783Z,100975.47
2022-12-24T19:53:35.753Z,100951.06
2022-12-24T19:56:02.685Z,100990.28
2022-12-24T19:58:32.791Z,100954.56
2022-12-24T20:01:14.553Z,100988.50
2022-12-24T20:03:41.732Z,101001.53
2022-12-24T20:06:11.219Z,101006.72
2022-12-24T20:08:38.753Z,100976.22
2022-12-24T20:11:07.842Z,100983.16
2022-12-24T20:13:35.711Z,101015.44
2022-12-24T20:16:11.236Z,101002.41
2022-12-24T20:18:38.136Z,101001.53
2022-12-24T20:21:07.138Z,101006.75
2022-12-24T20:23:33.975Z,100957.97
2022-12-24T20:26:02.953Z,100984.16
2022-12-24T20:28:32.127Z,100996.38
2022-12-24T20:30:58.851Z,101026.84
2022-12-24T20:33:26.245Z,100996.38
2022-12-24T20:35:52.971Z,101020.72
2022-12-24T20:38:19.615Z,101009.44
2022-12-24T20:40:46.946Z,100992.78
2022-12-24T20:43:13.658Z,100971.88
2022-12-24T20:45:41.180Z,100979.75
2022-12-24T20:48:08.268Z,100995.50
2022-12-24T20:50:34.920Z,100999.91
2022-12-24T20:53:01.543Z,100992.97
2022-12-24T20:55:28.229Z,101011.28
2022-12-24T20:57:54.840Z,100982.50
2022-12-24T21:00:21.780Z,100979.88
2022-12-24T21:02:48.629Z,100969.34
2022-12-24T21:05:15.648Z,101031.16
2022-12-24T21:07:43.691Z,100995.53
2022-12-24T21:10:12.544Z,100997.25
2022-12-24T21:12:49.208Z,100929.31
2022-12-24T21:15:21.795Z,100986.78
2022-12-24T21:17:48.999Z,101001.66
2022-12-24T21:20:16.842Z,100965.88
2022-12-24T21:22:44.011Z,100966.81
2022-12-24T21:25:12.139Z,100973.75
2022-12-24T21:27:39.168Z,101003.38
2022-12-24T21:30:08.366Z,101014.72
2022-12-24T21:32:36.424Z,101021.75
2022-12-24T21:35:05.039Z,100999.03
2022-12-24T21:37:31.699Z,101000.75
2022-12-24T21:39:58.415Z,100993.81
2022-12-24T21:42:26.035Z,100985.97
2022-12-24T21:44:52.777Z,100931.94
2022-12-24T21:47:19.545Z,100995.53
2022-12-24T21:50:05.649Z,100987.75
2022-12-24T21:52:32.899Z,100988.59
2022-12-24T21:54:59.616Z,101006.88
2022-12-24T21:57:44.884Z,100973.78
2022-12-24T22:00:30.625Z,100994.66
2022-12-24T22:02:59.483Z,100993.84
2022-12-24T22:05:32.867Z,100954.59
2022-12-24T22:08:18.242Z,100981.66
2022-12-24T22:11:03.404Z,101013.91
2022-12-24T22:13:32.414Z,100946.84
2022-12-24T22:15:59.049Z,100967.75
2022-12-24T22:18:26.541Z,100987.78
2022-12-24T22:20:53.803Z,100961.53
2022-12-24T22:23:20.756Z,100984.22
2022-12-24T22:25:47.557Z,100962.47
2022-12-24T22:28:14.314Z,101009.50
2022-12-24T22:30:42.852Z,100982.41
2022-12-24T22:33:10.059Z,101003.25
2022-12-24T22:35:41.836Z,100978.91
2022-12-24T22:38:09.970Z,100985.91
2022-12-24T22:40:39.097Z,101009.50
2022-12-24T22:43:05.791Z,101005.09
2022-12-24T22:45:32.423Z,101009.44
2022-12-24T22:47:59.067Z,100969.38
2022-12-24T22:50:25.901Z,100968.50
2022-12-24T22:52:53.940Z,101004.28
2022-12-24T22:55:20.584Z,101016.47
2022-12-24T22:57:47.240Z,101009.41
2022-12-24T23:00:37.668Z,100993.72
2022-12-24T23:03:05.496Z,101013.81
2022-12-24T23:05:32.331Z,101008.59
2022-12-24T23:07:59.475Z,100979.03
2022-12-24T23:10:26.165Z,101010.44
2022-12-24T23:13:15.101Z,100954.59
2022-12-24T23:15:42.963Z,101013.88
2022-12-24T23:18:10.398Z,101008.69
2022-12-24T23:20:43.168Z,100992.97
2022-12-24T23:23:09.865Z,101005.19
2022-12-24T23:25:36.641Z,101000.78
2022-12-24T23:28:04.029Z,101011.25
2022-12-24T23:30:30.745Z,101022.53
2022-12-24T23:32:57.568Z,101011.28
2022-12-24T23:35:24.232Z,101017.34
2022-12-24T23:37:50.886Z,100989.47
2022-12-24T23:40:17.568Z,101010.41
2022-12-24T23:42:44.261Z,101019.09
2022-12-24T23:45:11.066Z,101013.03
2022-12-24T23:47:37.698Z,101022.53
2022-12-24T23:50:04.921Z,101008.56
2022-12-24T23:52:31.878Z,101012.88
2022-12-24T23:54:58.505Z,101008.53
2022-12-24T23:57:25.111Z,100998.09
2022-12-24T23:59:51.726Z,101008.47
